Time;durP1;ratioP1;P1;durP2;ratioP2;P2;SDS_P1;SDS_P2;PMS_P1;PMS_P2;Temp;Humidity;BMP_temperature;BMP_pressure;BME280_temperature;BME280_humidity;BME280_pressure;Samples;Min_cycle;Max_cycle;Signal;HPM_P1;HPM_P2
2021/12/21 00:01:45;;;;;;;10.90;8.48;;;;;;;;;;4798873;29;20046;-74
2021/12/21 00:04:12;;;;;;;9.18;7.82;;;;;;;;;;4800679;29;20528;-78
2021/12/21 00:06:42;;;;;;;14.35;10.10;;;;;;;;;;4798193;29;20062;-73
2021/12/21 00:09:09;;;;;;;11.93;8.77;;;;;;;;;;4799127;29;20604;-74
2021/12/21 00:11:37;;;;;;;5.82;4.78;;;;;;;;;;4799138;29;20049;-74
2021/12/21 00:14:14;;;;;;;7.15;6.10;;;;;;;;;;4800864;29;20149;-73
2021/12/21 00:17:50;;;;;;;9.10;7.10;;;;;;;;;;4807171;29;20479;-74
2021/12/21 00:22:19;;;;;;;11.90;7.85;;;;;;;;;;4799347;29;20138;-74
2021/12/21 00:24:48;;;;;;;11.93;9.20;;;;;;;;;;4826430;29;20388;-73
2021/12/21 00:27:16;;;;;;;12.25;8.00;;;;;;;;;;4803312;29;20050;-73
2021/12/21 00:29:43;;;;;;;13.70;10.00;;;;;;;;;;4796563;29;20051;-73
2021/12/21 00:32:12;;;;;;;8.88;7.57;;;;;;;;;;4799954;29;20049;-73
2021/12/21 00:34:40;;;;;;;11.07;7.28;;;;;;;;;;4805376;29;20082;-73
2021/12/21 00:37:08;;;;;;;14.82;9.52;;;;;;;;;;4802084;29;20039;-73
2021/12/21 00:39:35;;;;;;;10.63;7.38;;;;;;;;;;4817865;29;20057;-73
2021/12/21 00:42:03;;;;;;;11.15;9.50;;;;;;;;;;4821905;29;20729;-73
2021/12/21 00:44:30;;;;;;;12.07;7.60;;;;;;;;;;4798371;29;20420;-73
2021/12/21 00:46:57;;;;;;;9.90;7.72;;;;;;;;;;4800089;29;20054;-73
2021/12/21 00:49:26;;;;;;;12.20;9.02;;;;;;;;;;4759842;29;1074424;-73
2021/12/21 00:51:54;;;;;;;12.20;10.13;;;;;;;;;;4791039;29;20500;-74
2021/12/21 00:54:21;;;;;;;13.95;9.70;;;;;;;;;;4804143;29;20130;-73
2021/12/21 00:56:49;;;;;;;12.63;9.60;;;;;;;;;;4781542;29;20057;-73
2021/12/21 00:59:16;;;;;;;13.50;10.07;;;;;;;;;;4797270;29;20852;-73
2021/12/21 01:01:44;;;;;;;13.27;9.23;;;;;;;;;;4791177;29;20161;-74
2021/12/21 01:04:23;;;;;;;10.70;8.23;;;;;;;;;;4812188;29;20043;-73
2021/12/21 01:07:13;;;;;;;10.88;9.50;;;;;;;;;;4786324;29;20138;-73
2021/12/21 01:12:46;;;;;;;9.68;8.23;;;;;;;;;;4787093;29;20051;-74
2021/12/21 01:15:26;;;;;;;11.13;8.50;;;;;;;;;;4795431;29;20465;-73
2021/12/21 01:18:10;;;;;;;11.93;7.78;;;;;;;;;;4790754;29;20166;-74
2021/12/21 01:20:43;;;;;;;11.20;9.00;;;;;;;;;;4812040;29;20057;-74
2021/12/21 01:23:40;;;;;;;11.65;8.35;;;;;;;;;;4796384;29;20447;-74
2021/12/21 01:26:12;;;;;;;7.75;6.85;;;;;;;;;;4794994;29;20074;-74
2021/12/21 01:28:55;;;;;;;9.82;8.82;;;;;;;;;;4797638;29;20153;-74
2021/12/21 01:36:47;;;;;;;9.27;6.38;;;;;;;;;;4799331;29;20100;-74
2021/12/21 01:39:52;;;;;;;9.00;7.75;;;;;;;;;;4796898;29;20667;-74
2021/12/21 01:42:38;;;;;;;10.75;7.95;;;;;;;;;;4800693;29;20138;-74
2021/12/21 01:50:24;;;;;;;9.45;8.15;;;;;;;;;;4800624;29;20053;-74
2021/12/21 01:52:52;;;;;;;7.22;6.47;;;;;;;;;;4802859;29;20074;-74
2021/12/21 01:55:19;;;;;;;10.88;8.52;;;;;;;;;;4803283;29;20051;-74
2021/12/21 01:57:46;;;;;;;10.40;7.60;;;;;;;;;;4801345;29;20043;-74
2021/12/21 02:00:14;;;;;;;9.38;8.45;;;;;;;;;;4802103;29;20150;-74
2021/12/21 02:02:41;;;;;;;12.32;8.90;;;;;;;;;;4827526;29;20309;-74
2021/12/21 02:05:09;;;;;;;8.98;7.50;;;;;;;;;;4833344;29;20072;-74
2021/12/21 02:07:36;;;;;;;12.35;8.85;;;;;;;;;;4813007;29;20446;-74
2021/12/21 02:10:04;;;;;;;8.85;7.93;;;;;;;;;;4802703;29;20108;-74
2021/12/21 02:12:32;;;;;;;11.07;7.38;;;;;;;;;;4800635;29;20507;-74
2021/12/21 02:15:00;;;;;;;8.10;7.30;;;;;;;;;;4804192;29;20411;-74
2021/12/21 02:25:56;;;;;;;10.00;8.02;;;;;;;;;;4800917;29;20046;-74
2021/12/21 02:30:57;;;;;;;7.55;6.75;;;;;;;;;;4802270;29;20505;-74
2021/12/21 02:33:26;;;;;;;8.93;7.35;;;;;;;;;;4816302;29;20143;-74
2021/12/21 02:35:53;;;;;;;8.68;6.85;;;;;;;;;;4798567;29;20524;-74
2021/12/21 02:38:21;;;;;;;6.63;5.50;;;;;;;;;;4820034;29;20397;-74
2021/12/21 02:40:48;;;;;;;8.25;6.28;;;;;;;;;;4812769;29;20481;-74
2021/12/21 02:43:16;;;;;;;6.18;5.30;;;;;;;;;;4801152;29;20049;-74
2021/12/21 02:45:43;;;;;;;8.18;6.03;;;;;;;;;;4804264;29;20047;-74
2021/12/21 02:48:11;;;;;;;6.95;6.25;;;;;;;;;;4801824;29;20444;-74
2021/12/21 02:50:39;;;;;;;7.13;6.43;;;;;;;;;;4799310;29;20497;-74
2021/12/21 02:53:08;;;;;;;7.10;6.40;;;;;;;;;;4802085;29;20126;-74
2021/12/21 02:55:36;;;;;;;7.05;5.95;;;;;;;;;;4797955;29;20150;-74
2021/12/21 02:58:04;;;;;;;8.73;5.85;;;;;;;;;;4808917;29;20046;-74
2021/12/21 03:00:32;;;;;;;6.63;5.93;;;;;;;;;;4799327;29;20108;-74
2021/12/21 03:03:06;;;;;;;7.50;6.72;;;;;;;;;;4824271;29;20054;-74
2021/12/21 03:05:36;;;;;;;8.32;6.78;;;;;;;;;;4806799;29;20035;-74
2021/12/21 03:08:12;;;;;;;7.72;6.32;;;;;;;;;;4802088;29;20466;-74
2021/12/21 03:10:47;;;;;;;7.80;6.85;;;;;;;;;;4798496;29;20039;-74
2021/12/21 03:16:01;;;;;;;7.43;6.55;;;;;;;;;;4815190;29;20517;-74
2021/12/21 03:18:29;;;;;;;8.40;6.43;;;;;;;;;;4801409;29;20125;-74
2021/12/21 03:20:56;;;;;;;7.55;6.78;;;;;;;;;;4799618;29;20137;-74
2021/12/21 03:23:23;;;;;;;6.70;6.00;;;;;;;;;;4800904;29;20437;-73
2021/12/21 03:25:51;;;;;;;7.47;6.57;;;;;;;;;;4813654;29;20079;-74
2021/12/21 03:28:18;;;;;;;7.30;6.60;;;;;;;;;;4802262;29;20111;-74
2021/12/21 03:30:45;;;;;;;6.47;5.80;;;;;;;;;;4815920;29;20129;-75
2021/12/21 03:33:13;;;;;;;8.50;7.10;;;;;;;;;;4799860;29;20095;-74
2021/12/21 03:35:40;;;;;;;8.77;6.68;;;;;;;;;;4815016;29;20584;-74
2021/12/21 03:38:07;;;;;;;7.07;6.32;;;;;;;;;;4804813;29;20054;-75
2021/12/21 03:40:35;;;;;;;7.13;5.10;;;;;;;;;;4810752;29;20205;-73
2021/12/21 03:43:03;;;;;;;6.20;5.53;;;;;;;;;;4799274;29;20125;-74
2021/12/21 03:45:34;;;;;;;7.68;5.88;;;;;;;;;;4800535;29;20075;-73
2021/12/21 03:48:02;;;;;;;7.27;5.93;;;;;;;;;;4807492;29;20270;-75
2021/12/21 03:50:29;;;;;;;5.82;5.25;;;;;;;;;;4805284;29;20399;-74
2021/12/21 03:52:57;;;;;;;5.97;5.38;;;;;;;;;;4800526;29;20057;-73
2021/12/21 03:55:24;;;;;;;7.38;5.50;;;;;;;;;;4805974;29;20058;-73
2021/12/21 03:57:51;;;;;;;6.00;4.88;;;;;;;;;;4799390;29;20074;-74
2021/12/21 04:00:20;;;;;;;7.13;4.93;;;;;;;;;;4818902;29;20066;-73
2021/12/21 04:02:47;;;;;;;6.90;5.07;;;;;;;;;;4824358;29;20047;-74
2021/12/21 04:05:15;;;;;;;6.22;5.30;;;;;;;;;;4804439;29;20072;-73
2021/12/21 04:07:42;;;;;;;5.68;4.75;;;;;;;;;;4822580;29;20559;-74
2021/12/21 04:10:10;;;;;;;5.57;4.93;;;;;;;;;;4802583;29;20136;-73
2021/12/21 04:12:38;;;;;;;5.43;4.93;;;;;;;;;;4815367;29;20125;-73
2021/12/21 04:15:07;;;;;;;8.52;5.20;;;;;;;;;;4814639;29;20053;-73
2021/12/21 04:17:34;;;;;;;6.93;5.20;;;;;;;;;;4815070;29;20141;-73
2021/12/21 04:20:02;;;;;;;9.63;5.60;;;;;;;;;;4806352;29;20053;-73
2021/12/21 04:22:30;;;;;;;7.45;5.65;;;;;;;;;;4814586;29;20058;-73
2021/12/21 04:24:57;;;;;;;6.82;5.68;;;;;;;;;;4809530;29;20178;-73
2021/12/21 04:27:24;;;;;;;8.52;5.47;;;;;;;;;;4814208;29;20043;-72
2021/12/21 04:29:52;;;;;;;5.75;4.47;;;;;;;;;;4814295;29;20129;-73
2021/12/21 04:32:19;;;;;;;6.97;4.75;;;;;;;;;;4806102;29;20046;-73
2021/12/21 04:34:47;;;;;;;6.80;5.28;;;;;;;;;;4815773;29;20046;-73
2021/12/21 04:37:16;;;;;;;6.50;5.88;;;;;;;;;;4816971;29;20051;-73
2021/12/21 04:39:53;;;;;;;6.97;5.68;;;;;;;;;;4813725;29;20069;-72
2021/12/21 04:42:21;;;;;;;5.75;4.93;;;;;;;;;;4798388;29;20062;-73
2021/12/21 04:44:48;;;;;;;6.15;4.78;;;;;;;;;;4799747;29;20051;-73
2021/12/21 04:47:15;;;;;;;7.47;6.43;;;;;;;;;;4800128;29;20058;-73
2021/12/21 04:49:43;;;;;;;6.05;5.38;;;;;;;;;;4794782;29;20125;-73
2021/12/21 04:52:10;;;;;;;8.20;4.82;;;;;;;;;;4800110;29;20066;-72
2021/12/21 04:54:39;;;;;;;6.25;5.35;;;;;;;;;;4799185;29;20047;-74
2021/12/21 04:57:07;;;;;;;6.15;5.55;;;;;;;;;;4817009;29;20042;-74
2021/12/21 04:59:34;;;;;;;5.93;5.38;;;;;;;;;;4827072;29;20141;-73
2021/12/21 05:02:02;;;;;;;8.27;6.57;;;;;;;;;;4812794;29;20142;-73
2021/12/21 05:04:35;;;;;;;6.30;5.70;;;;;;;;;;4832766;29;20126;-73
2021/12/21 05:07:02;;;;;;;7.10;6.07;;;;;;;;;;4814644;29;20058;-74
2021/12/21 05:09:39;;;;;;;9.73;6.43;;;;;;;;;;4799561;29;20477;-73
2021/12/21 05:12:09;;;;;;;5.63;4.90;;;;;;;;;;4800047;29;20580;-73
2021/12/21 05:14:37;;;;;;;5.78;5.15;;;;;;;;;;4814391;29;20129;-73
2021/12/21 05:17:05;;;;;;;5.68;4.88;;;;;;;;;;4798858;29;20557;-73
2021/12/21 05:19:33;;;;;;;9.02;5.88;;;;;;;;;;4800713;29;20089;-73
2021/12/21 05:22:01;;;;;;;7.70;6.15;;;;;;;;;;4796148;29;20039;-73
2021/12/21 05:24:28;;;;;;;10.60;6.97;;;;;;;;;;4802679;29;20046;-73
2021/12/21 05:26:56;;;;;;;8.70;6.45;;;;;;;;;;4799973;29;20595;-73
2021/12/21 05:29:23;;;;;;;8.43;6.93;;;;;;;;;;4802824;29;20081;-74
2021/12/21 05:31:51;;;;;;;8.88;6.50;;;;;;;;;;4810105;29;20505;-73
2021/12/21 05:34:18;;;;;;;8.18;6.00;;;;;;;;;;4803091;29;20565;-73
2021/12/21 05:36:46;;;;;;;7.05;5.88;;;;;;;;;;4813222;29;20111;-73
2021/12/21 05:39:18;;;;;;;7.07;5.72;;;;;;;;;;4803693;29;20496;-73
2021/12/21 05:41:54;;;;;;;6.00;5.40;;;;;;;;;;4798663;29;20134;-73
2021/12/21 05:44:26;;;;;;;8.45;5.47;;;;;;;;;;4806787;29;20090;-73
2021/12/21 05:46:55;;;;;;;6.57;5.80;;;;;;;;;;4801903;29;20086;-73
2021/12/21 05:49:22;;;;;;;8.40;6.55;;;;;;;;;;4815329;29;20370;-73
2021/12/21 05:51:50;;;;;;;6.70;4.78;;;;;;;;;;4798078;29;20042;-73
2021/12/21 05:54:18;;;;;;;6.25;5.63;;;;;;;;;;4799864;29;20141;-73
2021/12/21 05:56:46;;;;;;;6.80;6.10;;;;;;;;;;4810339;29;20081;-73
2021/12/21 05:59:14;;;;;;;6.47;5.28;;;;;;;;;;4804671;29;20493;-73
2021/12/21 06:01:41;;;;;;;5.43;4.93;;;;;;;;;;4800778;29;20107;-73
2021/12/21 06:04:08;;;;;;;7.60;6.22;;;;;;;;;;4799530;29;20125;-73
2021/12/21 06:06:36;;;;;;;7.03;5.50;;;;;;;;;;4803478;29;20142;-73
2021/12/21 06:09:07;;;;;;;5.85;5.05;;;;;;;;;;4800264;29;20138;-73
2021/12/21 06:11:40;;;;;;;5.10;4.43;;;;;;;;;;4797525;29;20054;-73
2021/12/21 06:27:29;;;;;;;11.15;9.05;;;;;;;;;;4796934;29;20671;-74
2021/12/21 06:29:56;;;;;;;9.73;7.97;;;;;;;;;;4800029;29;20039;-73
2021/12/21 06:32:24;;;;;;;9.90;7.75;;;;;;;;;;4796924;29;20137;-74
2021/12/21 06:34:51;;;;;;;6.00;5.40;;;;;;;;;;4812914;29;20315;-74
2021/12/21 06:37:19;;;;;;;5.30;4.57;;;;;;;;;;4799639;29;20070;-73
2021/12/21 06:39:48;;;;;;;7.18;5.03;;;;;;;;;;4802141;29;20078;-73
2021/12/21 06:42:15;;;;;;;5.88;4.35;;;;;;;;;;4813850;29;20100;-74
2021/12/21 06:44:45;;;;;;;6.38;4.88;;;;;;;;;;4803133;29;20054;-73
2021/12/21 06:52:45;;;;;;;5.55;4.95;;;;;;;;;;4799527;29;20120;-73
2021/12/21 06:55:13;;;;;;;5.60;4.22;;;;;;;;;;4801849;29;20055;-74
2021/12/21 06:57:43;;;;;;;4.90;4.35;;;;;;;;;;4814853;29;20043;-73
2021/12/21 07:00:12;;;;;;;9.20;5.97;;;;;;;;;;4801409;29;20515;-74
2021/12/21 07:02:39;;;;;;;6.95;5.47;;;;;;;;;;4800386;29;20518;-73
2021/12/21 07:05:07;;;;;;;4.22;3.83;;;;;;;;;;4801054;29;20460;-73
2021/12/21 07:07:36;;;;;;;4.10;3.80;;;;;;;;;;4801430;29;20153;-73
2021/12/21 07:10:07;;;;;;;6.75;4.88;;;;;;;;;;4801370;29;20123;-73
2021/12/21 07:18:07;;;;;;;5.30;4.32;;;;;;;;;;4798618;29;20054;-73
2021/12/21 07:20:35;;;;;;;6.35;5.53;;;;;;;;;;4795803;29;20053;-73
2021/12/21 07:23:02;;;;;;;7.35;5.22;;;;;;;;;;4784049;29;20061;-73
2021/12/21 07:25:30;;;;;;;5.03;4.53;;;;;;;;;;4797218;29;20145;-74
2021/12/21 07:27:58;;;;;;;7.32;5.40;;;;;;;;;;4784306;29;20082;-74
2021/12/21 07:30:25;;;;;;;6.65;5.75;;;;;;;;;;4786717;29;20088;-74
2021/12/21 07:32:53;;;;;;;6.70;5.25;;;;;;;;;;4775982;29;20067;-74
2021/12/21 07:35:20;;;;;;;5.28;4.57;;;;;;;;;;4784937;29;20051;-74
2021/12/21 07:37:48;;;;;;;5.25;4.50;;;;;;;;;;4766246;30;20081;-74
2021/12/21 07:40:15;;;;;;;6.90;5.65;;;;;;;;;;4780362;29;20125;-74
2021/12/21 07:42:43;;;;;;;7.40;6.00;;;;;;;;;;4780064;29;20112;-74
2021/12/21 07:45:10;;;;;;;8.88;5.28;;;;;;;;;;4766036;30;20151;-74
2021/12/21 07:47:38;;;;;;;7.97;6.28;;;;;;;;;;4765926;29;20057;-74
2021/12/21 07:50:09;;;;;;;11.30;8.17;;;;;;;;;;4762523;30;20051;-74
2021/12/21 07:52:37;;;;;;;10.25;7.18;;;;;;;;;;4761902;30;20048;-74
2021/12/21 07:55:05;;;;;;;9.38;6.82;;;;;;;;;;4754009;30;20131;-73
2021/12/21 07:57:32;;;;;;;9.73;6.07;;;;;;;;;;4749397;30;20055;-73
2021/12/21 08:00:03;;;;;;;10.05;6.43;;;;;;;;;;4796797;29;20354;-74
2021/12/21 08:02:39;;;;;;;9.25;6.20;;;;;;;;;;4800517;29;20050;-74
2021/12/21 08:05:08;;;;;;;9.45;7.13;;;;;;;;;;4809191;29;20062;-74
2021/12/21 08:07:45;;;;;;;8.73;6.00;;;;;;;;;;4803580;29;20054;-74
2021/12/21 08:10:28;;;;;;;10.95;6.85;;;;;;;;;;4794954;29;20086;-74
2021/12/21 08:12:56;;;;;;;11.55;8.20;;;;;;;;;;4798595;29;20828;-74
2021/12/21 08:15:24;;;;;;;10.85;7.18;;;;;;;;;;4793614;29;20070;-74
2021/12/21 08:17:52;;;;;;;7.40;6.57;;;;;;;;;;4814137;29;20053;-74
2021/12/21 08:20:19;;;;;;;8.05;6.43;;;;;;;;;;4795216;29;20046;-74
2021/12/21 08:22:47;;;;;;;8.93;5.90;;;;;;;;;;4797892;29;20493;-74
2021/12/21 08:25:14;;;;;;;8.38;6.90;;;;;;;;;;4783267;29;20051;-74
2021/12/21 08:27:41;;;;;;;7.43;6.55;;;;;;;;;;4800884;29;20122;-74
2021/12/21 08:30:09;;;;;;;6.15;5.55;;;;;;;;;;4799146;29;20564;-75
2021/12/21 08:32:37;;;;;;;9.18;6.78;;;;;;;;;;4800301;29;20071;-75
2021/12/21 08:35:05;;;;;;;15.35;9.88;;;;;;;;;;4800191;29;20054;-74
2021/12/21 08:37:34;;;;;;;14.10;8.77;;;;;;;;;;4800924;29;20058;-75
2021/12/21 08:40:01;;;;;;;10.13;7.30;;;;;;;;;;4796461;29;20161;-75
2021/12/21 08:42:29;;;;;;;8.13;6.60;;;;;;;;;;4799135;29;20116;-75
2021/12/21 08:44:59;;;;;;;9.38;6.53;;;;;;;;;;4803184;29;20567;-75
2021/12/21 08:47:28;;;;;;;7.18;6.30;;;;;;;;;;4800609;29;20074;-75
2021/12/21 08:49:55;;;;;;;6.90;5.53;;;;;;;;;;4784326;29;20588;-75
2021/12/21 08:52:23;;;;;;;7.13;5.30;;;;;;;;;;4801124;29;20560;-75
2021/12/21 08:54:50;;;;;;;9.30;7.53;;;;;;;;;;4799430;29;20042;-75
2021/12/21 08:57:18;;;;;;;23.92;14.18;;;;;;;;;;4798989;29;20178;-75
2021/12/21 08:59:48;;;;;;;11.27;8.77;;;;;;;;;;4799737;29;20042;-75
2021/12/21 09:02:16;;;;;;;8.80;6.88;;;;;;;;;;4805338;29;20634;-75
2021/12/21 09:04:43;;;;;;;7.63;6.35;;;;;;;;;;4806846;29;20077;-74
2021/12/21 09:07:11;;;;;;;7.13;5.80;;;;;;;;;;4800455;29;20477;-74
2021/12/21 09:09:38;;;;;;;8.05;6.85;;;;;;;;;;4796527;29;20115;-74
2021/12/21 09:12:06;;;;;;;7.90;7.07;;;;;;;;;;4800163;29;20099;-74
2021/12/21 09:14:58;;;;;;;7.38;6.05;;;;;;;;;;4799321;29;20115;-74
2021/12/21 09:17:25;;;;;;;7.75;5.35;;;;;;;;;;4798972;29;20130;-74
2021/12/21 09:19:53;;;;;;;6.07;5.38;;;;;;;;;;4798760;29;20050;-74
2021/12/21 09:22:41;;;;;;;8.18;6.10;;;;;;;;;;4811303;29;20122;-74
2021/12/21 09:25:09;;;;;;;7.95;5.47;;;;;;;;;;4793554;29;20423;-74
2021/12/21 09:27:37;;;;;;;6.53;5.90;;;;;;;;;;4797171;29;20467;-74
2021/12/21 09:30:09;;;;;;;7.15;5.97;;;;;;;;;;4799306;29;20573;-75
2021/12/21 09:32:39;;;;;;;7.45;6.03;;;;;;;;;;4795742;29;20553;-75
2021/12/21 09:35:07;;;;;;;10.88;6.72;;;;;;;;;;4815231;29;20054;-75
2021/12/21 09:37:35;;;;;;;7.95;6.47;;;;;;;;;;4798476;29;20525;-74
2021/12/21 09:40:04;;;;;;;7.45;6.20;;;;;;;;;;4796043;29;20079;-74
2021/12/21 09:42:32;;;;;;;9.93;6.88;;;;;;;;;;4797639;29;20112;-73
2021/12/21 09:45:01;;;;;;;8.30;6.40;;;;;;;;;;4790494;29;20527;-74
2021/12/21 09:47:28;;;;;;;6.95;5.45;;;;;;;;;;4799951;29;20079;-73
2021/12/21 09:49:56;;;;;;;7.03;5.20;;;;;;;;;;4805407;29;20062;-74
2021/12/21 09:52:25;;;;;;;7.13;6.13;;;;;;;;;;4810853;24;20127;-71
2021/12/21 09:54:53;;;;;;;7.63;5.95;;;;;;;;;;4797860;29;20303;-74
2021/12/21 09:57:21;;;;;;;6.25;5.55;;;;;;;;;;4799572;29;20054;-71
2021/12/21 09:59:49;;;;;;;7.95;6.30;;;;;;;;;;4804417;29;20476;-70
2021/12/21 10:02:21;;;;;;;7.40;6.32;;;;;;;;;;4801854;29;20139;-71
2021/12/21 10:04:50;;;;;;;8.32;6.07;;;;;;;;;;4802875;29;20584;-71
2021/12/21 10:07:18;;;;;;;9.27;7.18;;;;;;;;;;4794242;29;20466;-71
2021/12/21 10:09:47;;;;;;;8.35;5.97;;;;;;;;;;4801935;29;20569;-71
2021/12/21 10:12:15;;;;;;;6.50;5.75;;;;;;;;;;4802515;29;20126;-71
2021/12/21 10:14:42;;;;;;;8.05;6.20;;;;;;;;;;4811065;29;20050;-71
2021/12/21 10:17:11;;;;;;;8.23;6.22;;;;;;;;;;4813344;29;20053;-72
2021/12/21 10:19:39;;;;;;;8.23;6.20;;;;;;;;;;4802596;29;20136;-71
2021/12/21 10:22:10;;;;;;;5.15;4.65;;;;;;;;;;4800656;29;20214;-72
2021/12/21 10:24:44;;;;;;;9.43;7.18;;;;;;;;;;4803004;29;20050;-71
2021/12/21 10:27:11;;;;;;;8.55;5.82;;;;;;;;;;4809532;29;20146;-72
2021/12/21 10:29:53;;;;;;;8.55;7.15;;;;;;;;;;4800078;29;20050;-71
2021/12/21 10:32:21;;;;;;;9.27;6.57;;;;;;;;;;4797718;29;20141;-71
2021/12/21 10:34:50;;;;;;;9.73;6.97;;;;;;;;;;4785312;29;20076;-73
2021/12/21 10:37:23;;;;;;;7.97;5.60;;;;;;;;;;4796517;29;20046;-71
2021/12/21 10:40:01;;;;;;;7.63;5.90;;;;;;;;;;4806515;29;20794;-71
2021/12/21 10:42:28;;;;;;;7.30;5.10;;;;;;;;;;4814190;29;20499;-71
2021/12/21 10:45:05;;;;;;;6.78;5.82;;;;;;;;;;4820374;29;20479;-71
2021/12/21 10:47:34;;;;;;;6.78;5.60;;;;;;;;;;4804266;29;20085;-73
2021/12/21 10:50:01;;;;;;;6.97;5.88;;;;;;;;;;4805798;29;20058;-73
2021/12/21 10:52:31;;;;;;;6.13;5.50;;;;;;;;;;4801588;29;20051;-71
2021/12/21 10:54:59;;;;;;;7.15;5.60;;;;;;;;;;4799130;29;20047;-71
2021/12/21 10:57:32;;;;;;;7.55;5.68;;;;;;;;;;4805198;29;20042;-71
2021/12/21 11:00:01;;;;;;;7.57;5.45;;;;;;;;;;4795740;29;20092;-71
2021/12/21 11:02:32;;;;;;;4.80;4.35;;;;;;;;;;4806043;29;20048;-71
2021/12/21 11:05:01;;;;;;;8.43;5.22;;;;;;;;;;4807119;29;20070;-71
2021/12/21 11:07:42;;;;;;;9.13;4.28;;;;;;;;;;4802079;29;20047;-71
2021/12/21 11:10:14;;;;;;;4.28;3.72;;;;;;;;;;4797790;29;20049;-72
2021/12/21 11:13:12;;;;;;;4.43;4.03;;;;;;;;;;4802300;29;20405;-71
2021/12/21 11:15:39;;;;;;;5.55;4.00;;;;;;;;;;4800387;29;20135;-72
2021/12/21 11:18:08;;;;;;;4.88;4.05;;;;;;;;;;4799897;29;20138;-71
2021/12/21 11:20:37;;;;;;;2.00;1.90;;;;;;;;;;4796390;29;20099;-71
2021/12/21 11:23:05;;;;;;;4.78;3.60;;;;;;;;;;4817215;29;20081;-71
2021/12/21 11:25:33;;;;;;;4.32;3.53;;;;;;;;;;4795645;29;20050;-71
2021/12/21 11:28:01;;;;;;;2.88;2.67;;;;;;;;;;4798384;29;20126;-71
2021/12/21 11:30:30;;;;;;;5.35;3.55;;;;;;;;;;4796769;29;20447;-71
2021/12/21 11:32:57;;;;;;;7.13;3.47;;;;;;;;;;4800132;29;20161;-71
2021/12/21 11:37:54;;;;;;;7.90;4.00;;;;;;;;;;4802294;29;20055;-71
2021/12/21 11:40:24;;;;;;;6.30;3.25;;;;;;;;;;4802665;29;20102;-72
2021/12/21 11:42:51;;;;;;;6.55;3.88;;;;;;;;;;4796745;29;20496;-71
2021/12/21 11:45:27;;;;;;;2.97;2.78;;;;;;;;;;4801579;29;20066;-71
2021/12/21 11:48:03;;;;;;;3.75;2.58;;;;;;;;;;4794545;29;20053;-71
2021/12/21 11:50:30;;;;;;;4.85;3.17;;;;;;;;;;4804054;29;20252;-71
2021/12/21 11:53:05;;;;;;;6.30;1.63;;;;;;;;;;4804134;29;20126;-73
2021/12/21 11:55:33;;;;;;;4.05;3.08;;;;;;;;;;4803764;29;20205;-71
2021/12/21 11:58:14;;;;;;;5.10;2.92;;;;;;;;;;4812150;29;20053;-71
2021/12/21 12:00:46;;;;;;;4.22;3.03;;;;;;;;;;4798251;29;20046;-71
2021/12/21 12:03:18;;;;;;;6.72;3.15;;;;;;;;;;4802993;29;20109;-71
2021/12/21 12:05:54;;;;;;;3.00;2.63;;;;;;;;;;4805029;29;20415;-73
2021/12/21 12:08:24;;;;;;;4.25;3.85;;;;;;;;;;4801389;29;20122;-71
2021/12/21 12:10:51;;;;;;;4.85;4.10;;;;;;;;;;4818536;29;20046;-71
2021/12/21 12:13:26;;;;;;;5.38;3.22;;;;;;;;;;4806483;29;20038;-71
2021/12/21 12:15:54;;;;;;;3.83;3.30;;;;;;;;;;4800855;29;20126;-71
2021/12/21 12:18:29;;;;;;;5.93;3.50;;;;;;;;;;4785438;29;20271;-71
2021/12/21 12:20:57;;;;;;;4.75;3.25;;;;;;;;;;4797390;29;20491;-71
2021/12/21 12:23:24;;;;;;;5.15;2.90;;;;;;;;;;4813464;29;20245;-71
2021/12/21 12:25:54;;;;;;;3.60;3.03;;;;;;;;;;4809325;29;20217;-71
2021/12/21 12:28:42;;;;;;;4.25;3.20;;;;;;;;;;4799445;29;20057;-71
2021/12/21 12:31:09;;;;;;;3.60;3.30;;;;;;;;;;4798596;29;20089;-71
2021/12/21 12:33:42;;;;;;;3.28;2.97;;;;;;;;;;4794405;29;20070;-71
2021/12/21 12:36:09;;;;;;;3.80;3.17;;;;;;;;;;4796797;29;20108;-72
2021/12/21 12:38:43;;;;;;;4.47;2.90;;;;;;;;;;4797086;29;20092;-71
2021/12/21 12:41:13;;;;;;;3.53;3.03;;;;;;;;;;4806350;29;20137;-71
2021/12/21 12:43:41;;;;;;;8.45;3.13;;;;;;;;;;4799007;29;20415;-71
2021/12/21 12:46:10;;;;;;;3.10;2.80;;;;;;;;;;4796884;29;20577;-71
2021/12/21 12:48:47;;;;;;;3.88;3.28;;;;;;;;;;4795279;29;20226;-71
2021/12/21 12:51:33;;;;;;;5.20;2.70;;;;;;;;;;4796978;29;20058;-71
2021/12/21 12:54:12;;;;;;;3.25;2.90;;;;;;;;;;4797841;29;20099;-72
2021/12/21 12:56:40;;;;;;;6.47;3.08;;;;;;;;;;4793562;29;20126;-71
2021/12/21 12:59:08;;;;;;;3.03;2.70;;;;;;;;;;4809342;29;20567;-71
2021/12/21 13:01:42;;;;;;;4.75;2.78;;;;;;;;;;4792237;29;20065;-72
2021/12/21 13:04:12;;;;;;;3.38;2.70;;;;;;;;;;4784165;29;20083;-72
2021/12/21 13:06:40;;;;;;;2.72;2.53;;;;;;;;;;4790067;29;20063;-72
2021/12/21 13:09:13;;;;;;;5.93;3.67;;;;;;;;;;4778953;29;20535;-73
2021/12/21 13:11:41;;;;;;;3.60;2.88;;;;;;;;;;4784234;29;20047;-72
2021/12/21 13:14:10;;;;;;;3.58;3.05;;;;;;;;;;4783259;29;20075;-72
2021/12/21 13:16:38;;;;;;;3.28;2.80;;;;;;;;;;4780350;29;20131;-72
2021/12/21 13:19:15;;;;;;;7.10;3.60;;;;;;;;;;4773813;29;20087;-72
2021/12/21 13:21:57;;;;;;;3.40;3.15;;;;;;;;;;4777841;29;20061;-73
2021/12/21 13:24:25;;;;;;;;;;;;;;;;;;4791354;29;20680;-72
2021/12/21 13:26:55;;;;;;;4.13;3.17;;;;;;;;;;4776920;29;19925;-73
2021/12/21 13:29:27;;;;;;;3.70;3.40;;;;;;;;;;4794434;29;20439;-72
2021/12/21 13:31:55;;;;;;;2.92;2.45;;;;;;;;;;4799583;29;20093;-71
2021/12/21 13:34:24;;;;;;;3.03;2.30;;;;;;;;;;4801840;29;20133;-71
2021/12/21 13:36:55;;;;;;;3.92;2.78;;;;;;;;;;4811631;29;20308;-73
2021/12/21 13:39:26;;;;;;;3.20;2.80;;;;;;;;;;4790783;29;20042;-72
2021/12/21 13:41:53;;;;;;;5.30;3.55;;;;;;;;;;4806451;29;20110;-72
2021/12/21 13:44:25;;;;;;;5.63;3.30;;;;;;;;;;4804139;29;20184;-72
2021/12/21 13:46:53;;;;;;;3.22;2.92;;;;;;;;;;4806111;29;20111;-72
2021/12/21 13:49:59;;;;;;;4.32;2.95;;;;;;;;;;4797530;29;20054;-72
2021/12/21 13:52:28;;;;;;;4.32;3.20;;;;;;;;;;4792939;29;20063;-72
2021/12/21 13:54:56;;;;;;;2.72;2.53;;;;;;;;;;4804198;29;20050;-72
2021/12/21 13:57:25;;;;;;;2.63;2.42;;;;;;;;;;4821862;29;20047;-74
2021/12/21 13:59:54;;;;;;;3.45;2.78;;;;;;;;;;4816123;29;20074;-74
2021/12/21 14:02:42;;;;;;;3.10;2.67;;;;;;;;;;4799239;29;20043;-72
2021/12/21 14:05:16;;;;;;;3.58;2.70;;;;;;;;;;4814390;29;20050;-72
2021/12/21 14:07:44;;;;;;;2.70;2.53;;;;;;;;;;4808377;29;20047;-72
2021/12/21 14:10:20;;;;;;;2.92;2.15;;;;;;;;;;4792778;29;20051;-73
2021/12/21 14:12:57;;;;;;;3.30;2.90;;;;;;;;;;4799915;29;20470;-73
2021/12/21 14:15:37;;;;;;;4.25;3.50;;;;;;;;;;4804790;29;20125;-72
2021/12/21 14:18:14;;;;;;;6.60;4.60;;;;;;;;;;4796886;29;20191;-73
2021/12/21 14:20:41;;;;;;;4.80;3.20;;;;;;;;;;4790314;29;20051;-72
2021/12/21 14:23:17;;;;;;;4.40;3.95;;;;;;;;;;4794386;29;20142;-72
2021/12/21 14:25:44;;;;;;;4.60;3.72;;;;;;;;;;4800405;29;20464;-72
2021/12/21 14:28:13;;;;;;;5.63;4.43;;;;;;;;;;4795227;29;20059;-72
2021/12/21 14:30:41;;;;;;;9.77;6.20;;;;;;;;;;4797224;29;20059;-74
2021/12/21 14:33:21;;;;;;;6.13;4.57;;;;;;;;;;4799223;29;20073;-71
2021/12/21 14:35:52;;;;;;;8.93;5.63;;;;;;;;;;4806212;29;20130;-73
2021/12/21 14:38:19;;;;;;;5.35;4.20;;;;;;;;;;4803060;29;20090;-72
2021/12/21 14:40:48;;;;;;;6.97;5.72;;;;;;;;;;4802779;29;20170;-72
2021/12/21 14:43:33;;;;;;;4.90;4.50;;;;;;;;;;4796015;29;20118;-71
2021/12/21 14:46:02;;;;;;;6.70;4.85;;;;;;;;;;4802449;29;20146;-74
2021/12/21 14:48:29;;;;;;;8.95;6.82;;;;;;;;;;4785509;29;20074;-73
2021/12/21 14:51:09;;;;;;;11.90;7.45;;;;;;;;;;4800972;29;20137;-72
2021/12/21 14:53:46;;;;;;;18.63;9.63;;;;;;;;;;4789052;29;20043;-73
2021/12/21 14:56:34;;;;;;;14.57;8.35;;;;;;;;;;4809656;29;20126;-72
2021/12/21 14:59:03;;;;;;;20.15;9.80;;;;;;;;;;4787078;29;20903;-72
2021/12/21 15:01:36;;;;;;;17.88;9.52;;;;;;;;;;4796885;29;20404;-73
2021/12/21 15:04:23;;;;;;;12.57;8.20;;;;;;;;;;4793007;29;20074;-72
2021/12/21 15:06:51;;;;;;;13.63;6.88;;;;;;;;;;4790608;29;20056;-73
2021/12/21 15:09:19;;;;;;;13.52;8.18;;;;;;;;;;4785667;29;20483;-72
2021/12/21 15:11:51;;;;;;;18.73;9.88;;;;;;;;;;4789093;29;20051;-74
2021/12/21 15:14:19;;;;;;;13.25;8.90;;;;;;;;;;4784183;29;20035;-72
2021/12/21 15:16:47;;;;;;;12.80;8.35;;;;;;;;;;4789225;29;20166;-74
2021/12/21 15:19:15;;;;;;;14.52;10.60;;;;;;;;;;4792980;29;20051;-72
2021/12/21 15:21:43;;;;;;;13.50;10.75;;;;;;;;;;4802390;29;20039;-72
2021/12/21 15:24:11;;;;;;;15.73;11.60;;;;;;;;;;4797165;29;20129;-72
2021/12/21 15:26:38;;;;;;;16.20;12.13;;;;;;;;;;4797864;29;20099;-73
2021/12/21 15:29:06;;;;;;;19.90;13.50;;;;;;;;;;4796942;29;20075;-73
2021/12/21 15:31:34;;;;;;;19.40;13.57;;;;;;;;;;4791691;29;20047;-73
2021/12/21 15:34:01;;;;;;;16.15;13.10;;;;;;;;;;4785352;29;20072;-71
2021/12/21 15:36:29;;;;;;;15.25;12.05;;;;;;;;;;4796855;29;20134;-72
2021/12/21 15:38:57;;;;;;;16.58;11.90;;;;;;;;;;4780560;29;20051;-73
2021/12/21 15:41:26;;;;;;;12.73;9.82;;;;;;;;;;4806090;29;20081;-71
2021/12/21 15:43:55;;;;;;;10.18;7.65;;;;;;;;;;4798132;29;20564;-71
2021/12/21 15:46:27;;;;;;;7.32;6.53;;;;;;;;;;4812147;29;20385;-72
2021/12/21 15:48:54;;;;;;;6.38;5.72;;;;;;;;;;4797288;29;20057;-72
2021/12/21 15:51:22;;;;;;;10.10;7.93;;;;;;;;;;4804265;29;20476;-72
2021/12/21 15:53:49;;;;;;;10.95;8.15;;;;;;;;;;4820166;24;20055;-82
2021/12/21 15:56:18;;;;;;;9.90;8.65;;;;;;;;;;4818090;29;20047;-82